sensor_id;sensor_type;location;lat;lon;timestamp;pressure;altitude;pressure_sealevel;temperature;humidity
48800;BME280;34611;47.964;7.982;2023-11-21T00:02:27;96265.59;;;13.35;67.63
48800;BME280;34611;47.964;7.982;2023-11-21T00:09:28;96258.59;;;13.36;67.66
48800;BME280;34611;47.964;7.982;2023-11-21T00:16:28;96251.56;;;13.36;67.57
48800;BME280;34611;47.964;7.982;2023-11-21T00:23:29;96248.13;;;13.36;67.63
48800;BME280;34611;47.964;7.982;2023-11-21T00:30:29;96235.09;;;13.36;67.65
48800;BME280;34611;47.964;7.982;2023-11-21T00:37:31;96231.66;;;13.35;67.63
48800;BME280;34611;47.964;7.982;2023-11-21T00:44:32;96231.47;;;13.37;67.66
48800;BME280;34611;47.964;7.982;2023-11-21T00:51:34;96227.25;;;13.36;67.48
48800;BME280;34611;47.964;7.982;2023-11-21T00:58:34;96223.00;;;13.35;67.58
48800;BME280;34611;47.964;7.982;2023-11-21T01:05:35;96230.69;;;13.36;67.52
48800;BME280;34611;47.964;7.982;2023-11-21T01:12:36;96234.28;;;13.35;67.54
48800;BME280;34611;47.964;7.982;2023-11-21T01:19:37;96236.06;;;13.35;67.50
48800;BME280;34611;47.964;7.982;2023-11-21T01:26:37;96234.28;;;13.35;67.66
48800;BME280;34611;47.964;7.982;2023-11-21T01:33:37;96236.06;;;13.35;67.66
48800;BME280;34611;47.964;7.982;2023-11-21T01:40:38;96224.78;;;13.34;67.52
48800;BME280;34611;47.964;7.982;2023-11-21T01:47:38;96239.50;;;13.35;67.72
48800;BME280;34611;47.964;7.982;2023-11-21T01:54:41;96234.28;;;13.35;67.56
48800;BME280;34611;47.964;7.982;2023-11-21T02:01:42;96224.78;;;13.34;67.66
48800;BME280;34611;47.964;7.982;2023-11-21T02:08:42;96230.81;;;13.35;67.54
48800;BME280;34611;47.964;7.982;2023-11-21T02:15:45;96230.03;;;13.34;67.55
48800;BME280;34611;47.964;7.982;2023-11-21T02:22:49;96229.06;;;13.35;67.42
48800;BME280;34611;47.964;7.982;2023-11-21T02:29:50;96223.00;;;13.35;67.53
48800;BME280;34611;47.964;7.982;2023-11-21T02:36:50;96224.78;;;13.34;67.64
48800;BME280;34611;47.964;7.982;2023-11-21T02:43:51;96222.19;;;13.34;67.71
48800;BME280;34611;47.964;7.982;2023-11-21T02:50:51;96228.22;;;13.35;67.63
48800;BME280;34611;47.964;7.982;2023-11-21T02:57:53;96226.44;;;13.35;67.71
48800;BME280;34611;47.964;7.982;2023-11-21T03:04:53;96222.19;;;13.34;67.59
48800;BME280;34611;47.964;7.982;2023-11-21T03:11:54;96208.31;;;13.34;67.71
48800;BME280;34611;47.964;7.982;2023-11-21T03:18:55;96214.34;;;13.34;67.62
48800;BME280;34611;47.964;7.982;2023-11-21T03:25:55;96205.56;;;13.35;67.50
48800;BME280;34611;47.964;7.982;2023-11-21T03:32:56;96217.78;;;13.35;67.63
48800;BME280;34611;47.964;7.982;2023-11-21T03:39:56;96221.22;;;13.35;67.57
48800;BME280;34611;47.964;7.982;2023-11-21T03:46:57;96223.00;;;13.35;67.70
48800;BME280;34611;47.964;7.982;2023-11-21T03:53:57;96217.78;;;13.35;67.66
48800;BME280;34611;47.964;7.982;2023-11-21T04:00:57;96223.84;;;13.35;67.67
48800;BME280;34611;47.964;7.982;2023-11-21T04:07:57;96214.19;;;13.36;67.59
48800;BME280;34611;47.964;7.982;2023-11-21T04:14:58;96216.97;;;13.34;67.57
48800;BME280;34611;47.964;7.982;2023-11-21T04:21:58;96233.44;;;13.35;67.75
48800;BME280;34611;47.964;7.982;2023-11-21T04:28:58;96236.06;;;13.35;67.72
48800;BME280;34611;47.964;7.982;2023-11-21T04:35:59;96232.63;;;13.34;67.73
48800;BME280;34611;47.964;7.982;2023-11-21T04:42:59;96233.44;;;13.35;67.75
48800;BME280;34611;47.964;7.982;2023-11-21T04:49:59;96237.84;;;13.34;67.58
48800;BME280;34611;47.964;7.982;2023-11-21T04:57:00;96242.91;;;13.36;67.72
48800;BME280;34611;47.964;7.982;2023-11-21T05:04:00;96252.56;;;13.35;67.74
48800;BME280;34611;47.964;7.982;2023-11-21T05:11:00;96249.94;;;13.35;67.76
48800;BME280;34611;47.964;7.982;2023-11-21T05:18:01;96248.28;;;13.34;67.62
48800;BME280;34611;47.964;7.982;2023-11-21T05:25:01;96259.38;;;13.36;67.59
48800;BME280;34611;47.964;7.982;2023-11-21T05:32:03;96273.44;;;13.35;67.67
48800;BME280;34611;47.964;7.982;2023-11-21T05:39:03;96276.03;;;13.35;67.74
48800;BME280;34611;47.964;7.982;2023-11-21T05:46:04;96286.63;;;13.34;67.70
48800;BME280;34611;47.964;7.982;2023-11-21T05:53:05;96290.06;;;13.34;67.66
48800;BME280;34611;47.964;7.982;2023-11-21T06:00:07;96303.13;;;13.34;67.62
48800;BME280;34611;47.964;7.982;2023-11-21T06:07:25;96300.50;;;13.34;67.59
48800;BME280;34611;47.964;7.982;2023-11-21T06:14:25;96304.75;;;13.35;67.72
48800;BME280;34611;47.964;7.982;2023-11-21T06:21:26;96323.03;;;13.35;67.83
48800;BME280;34611;47.964;7.982;2023-11-21T06:28:26;96327.41;;;13.35;67.68
48800;BME280;34611;47.964;7.982;2023-11-21T06:35:26;96334.44;;;13.34;67.60
48800;BME280;34611;47.964;7.982;2023-11-21T06:42:30;96337.06;;;13.34;67.55
48800;BME280;34611;47.964;7.982;2023-11-21T06:49:30;96342.28;;;13.34;67.61
48800;BME280;34611;47.964;7.982;2023-11-21T06:56:31;96354.38;;;13.35;67.58
48800;BME280;34611;47.964;7.982;2023-11-21T07:03:32;96346.69;;;13.34;67.51
48800;BME280;34611;47.964;7.982;2023-11-21T07:10:33;96350.09;;;13.34;67.68
48800;BME280;34611;47.964;7.982;2023-11-21T07:17:33;96355.31;;;13.34;67.57
48800;BME280;34611;47.964;7.982;2023-11-21T07:24:35;96353.72;;;13.33;67.73
48800;BME280;34611;47.964;7.982;2023-11-21T07:31:36;96355.47;;;13.33;67.72
48800;BME280;34611;47.964;7.982;2023-11-21T07:38:37;96363.16;;;13.34;67.55
48800;BME280;34611;47.964;7.982;2023-11-21T07:45:37;96364.16;;;13.33;67.62
48800;BME280;34611;47.964;7.982;2023-11-21T07:52:37;96356.31;;;13.33;67.72
48800;BME280;34611;47.964;7.982;2023-11-21T07:59:38;96368.38;;;13.34;67.54
48800;BME280;34611;47.964;7.982;2023-11-21T08:06:38;96389.25;;;13.34;67.57
48800;BME280;34611;47.964;7.982;2023-11-21T08:13:38;96389.25;;;13.34;67.77
48800;BME280;34611;47.964;7.982;2023-11-21T08:20:38;96398.09;;;13.33;67.72
48800;BME280;34611;47.964;7.982;2023-11-21T08:27:40;96406.72;;;13.34;67.41
48800;BME280;34611;47.964;7.982;2023-11-21T08:34:40;96402.31;;;13.34;67.58
48800;BME280;34611;47.964;7.982;2023-11-21T08:41:43;96415.38;;;13.34;67.59
48800;BME280;34611;47.964;7.982;2023-11-21T08:48:43;96417.97;;;13.34;67.70
48800;BME280;34611;47.964;7.982;2023-11-21T08:55:43;96420.59;;;13.34;67.58
48800;BME280;34611;47.964;7.982;2023-11-21T09:02:44;96421.56;;;13.33;67.69
48800;BME280;34611;47.964;7.982;2023-11-21T09:09:44;96425.00;;;13.34;67.72
48800;BME280;34611;47.964;7.982;2023-11-21T09:16:45;96425.81;;;13.34;67.57
48800;BME280;34611;47.964;7.982;2023-11-21T09:23:45;96444.09;;;13.34;67.67
48800;BME280;34611;47.964;7.982;2023-11-21T09:30:46;96451.91;;;13.34;67.71
48800;BME280;34611;47.964;7.982;2023-11-21T09:37:46;96451.91;;;13.34;67.62
48800;BME280;34611;47.964;7.982;2023-11-21T09:51:47;96453.72;;;13.34;67.77
48800;BME280;34611;47.964;7.982;2023-11-21T09:58:50;96463.16;;;13.35;67.61
48800;BME280;34611;47.964;7.982;2023-11-21T10:05:50;96462.34;;;13.34;67.59
48800;BME280;34611;47.964;7.982;2023-11-21T10:12:54;96466.78;;;13.34;67.61
48800;BME280;34611;47.964;7.982;2023-11-21T10:19:55;96466.78;;;13.34;67.70
48800;BME280;34611;47.964;7.982;2023-11-21T10:26:57;96467.56;;;13.34;67.61
48800;BME280;34611;47.964;7.982;2023-11-21T10:41:17;96472.00;;;13.34;67.59
48800;BME280;34611;47.964;7.982;2023-11-21T10:48:17;96478.03;;;13.34;67.78
48800;BME280;34611;47.964;7.982;2023-11-21T10:55:18;96474.59;;;13.34;67.72
48800;BME280;34611;47.964;7.982;2023-11-21T11:02:23;96466.78;;;13.34;67.55
48800;BME280;34611;47.964;7.982;2023-11-21T11:09:32;96472.81;;;13.34;67.63
48800;BME280;34611;47.964;7.982;2023-11-21T11:16:35;96477.06;;;13.35;67.78
48800;BME280;34611;47.964;7.982;2023-11-21T11:23:45;96483.25;;;13.34;67.64
48800;BME280;34611;47.964;7.982;2023-11-21T11:30:57;96472.00;;;13.34;67.56
48800;BME280;34611;47.964;7.982;2023-11-21T11:38:04;96484.22;;;13.33;67.59
48800;BME280;34611;47.964;7.982;2023-11-21T11:45:25;96486.66;;;13.35;67.75
48800;BME280;34611;47.964;7.982;2023-11-21T11:52:34;96483.25;;;13.34;67.54
48800;BME280;34611;47.964;7.982;2023-11-21T12:00:00;96482.44;;;13.34;67.65
48800;BME280;34611;47.964;7.982;2023-11-21T12:06:55;96483.25;;;13.34;67.60
48800;BME280;34611;47.964;7.982;2023-11-21T12:13:56;96483.25;;;13.34;67.64
48800;BME280;34611;47.964;7.982;2023-11-21T12:20:56;96483.25;;;13.34;67.62
48800;BME280;34611;47.964;7.982;2023-11-21T12:27:57;96477.22;;;13.34;67.62
48800;BME280;34611;47.964;7.982;2023-11-21T12:34:57;96479.81;;;13.34;67.58
48800;BME280;34611;47.964;7.982;2023-11-21T12:41:58;96483.25;;;13.34;67.74
48800;BME280;34611;47.964;7.982;2023-11-21T12:48:58;96485.84;;;13.34;67.64
48800;BME280;34611;47.964;7.982;2023-11-21T12:55:58;96486.84;;;13.33;67.53
48800;BME280;34611;47.964;7.982;2023-11-21T13:02:59;96482.44;;;13.34;67.65
48800;BME280;34611;47.964;7.982;2023-11-21T13:09:59;96486.84;;;13.33;67.59
48800;BME280;34611;47.964;7.982;2023-11-21T13:16:59;96489.44;;;13.33;67.67
48800;BME280;34611;47.964;7.982;2023-11-21T13:24:00;96498.91;;;13.34;67.54
48800;BME280;34611;47.964;7.982;2023-11-21T13:31:00;96511.97;;;13.34;67.82
48800;BME280;34611;47.964;7.982;2023-11-21T13:38:23;96513.75;;;13.34;67.61
48800;BME280;34611;47.964;7.982;2023-11-21T13:45:23;96528.59;;;13.33;67.67
48800;BME280;34611;47.964;7.982;2023-11-21T13:52:24;96527.78;;;13.33;67.94
48800;BME280;34611;47.964;7.982;2023-11-21T13:59:27;96528.59;;;13.33;67.90
48800;BME280;34611;47.964;7.982;2023-11-21T14:06:30;96533.00;;;13.33;67.69
48800;BME280;34611;47.964;7.982;2023-11-21T14:13:38;96538.06;;;13.34;67.68
48800;BME280;34611;47.964;7.982;2023-11-21T14:20:43;96539.06;;;13.33;67.58
48800;BME280;34611;47.964;7.982;2023-11-21T14:27:44;96536.44;;;13.33;67.72
48800;BME280;34611;47.964;7.982;2023-11-21T14:34:44;96559.94;;;13.33;67.67
48800;BME280;34611;47.964;7.982;2023-11-21T14:41:47;96568.59;;;13.34;67.51
48800;BME280;34611;47.964;7.982;2023-11-21T14:48:47;96565.97;;;13.34;67.70
48800;BME280;34611;47.964;7.982;2023-11-21T14:55:58;96574.75;;;13.33;67.77
48800;BME280;34611;47.964;7.982;2023-11-21T15:03:00;96578.22;;;13.33;67.64
48800;BME280;34611;47.964;7.982;2023-11-21T15:10:01;96586.03;;;13.33;67.62
48800;BME280;34611;47.964;7.982;2023-11-21T15:17:01;96584.25;;;13.34;67.67
48800;BME280;34611;47.964;7.982;2023-11-21T15:24:02;96597.28;;;13.34;67.81
48800;BME280;34611;47.964;7.982;2023-11-21T15:31:03;96608.56;;;13.34;67.64
48800;BME280;34611;47.964;7.982;2023-11-21T15:38:04;96616.53;;;13.33;67.71
48800;BME280;34611;47.964;7.982;2023-11-21T15:45:04;96620.78;;;13.34;67.78
48800;BME280;34611;47.964;7.982;2023-11-21T15:52:07;96622.59;;;13.33;67.82
48800;BME280;34611;47.964;7.982;2023-11-21T15:59:10;96626.84;;;13.34;67.63
48800;BME280;34611;47.964;7.982;2023-11-21T16:06:10;96633.84;;;13.34;67.91
48800;BME280;34611;47.964;7.982;2023-11-21T16:13:11;96638.25;;;13.33;67.83
48800;BME280;34611;47.964;7.982;2023-11-21T16:20:13;96646.91;;;13.34;67.83
48800;BME280;34611;47.964;7.982;2023-11-21T16:27:15;96659.16;;;13.33;67.74
48800;BME280;34611;47.964;7.982;2023-11-21T16:34:17;96662.56;;;13.34;67.88
48800;BME280;34611;47.964;7.982;2023-11-21T16:41:18;96674.81;;;13.33;67.81
48800;BME280;34611;47.964;7.982;2023-11-21T16:48:18;96680.97;;;13.32;67.71
48800;BME280;34611;47.964;7.982;2023-11-21T16:55:19;96688.69;;;13.34;67.71
48800;BME280;34611;47.964;7.982;2023-11-21T17:02:20;96687.88;;;13.33;67.88
48800;BME280;34611;47.964;7.982;2023-11-21T17:09:20;96703.53;;;13.33;67.64
48800;BME280;34611;47.964;7.982;2023-11-21T17:16:21;96713.13;;;13.33;67.89
48800;BME280;34611;47.964;7.982;2023-11-21T17:23:21;96720.16;;;13.32;67.84
48800;BME280;34611;47.964;7.982;2023-11-21T17:30:22;96732.25;;;13.33;67.75
48800;BME280;34611;47.964;7.982;2023-11-21T17:37:22;96737.47;;;13.33;67.74
48800;BME280;34611;47.964;7.982;2023-11-21T17:44:22;96738.41;;;13.32;67.89
48800;BME280;34611;47.964;7.982;2023-11-21T17:51:23;96749.69;;;13.33;67.98
48800;BME280;34611;47.964;7.982;2023-11-21T17:58:23;96753.13;;;13.33;67.82
48800;BME280;34611;47.964;7.982;2023-11-21T18:05:23;96769.75;;;13.32;67.81
48800;BME280;34611;47.964;7.982;2023-11-21T18:12:24;96772.34;;;13.32;67.98
48800;BME280;34611;47.964;7.982;2023-11-21T18:19:24;96777.56;;;13.32;67.85
48800;BME280;34611;47.964;7.982;2023-11-21T18:26:25;96782.81;;;13.32;67.90
48800;BME280;34611;47.964;7.982;2023-11-21T18:33:25;96804.50;;;13.33;68.00
48800;BME280;34611;47.964;7.982;2023-11-21T18:40:25;96807.28;;;13.31;67.84
48800;BME280;34611;47.964;7.982;2023-11-21T18:47:26;96817.56;;;13.33;68.03
48800;BME280;34611;47.964;7.982;2023-11-21T18:54:27;96840.25;;;13.32;68.09
48800;BME280;34611;47.964;7.982;2023-11-21T19:01:30;96842.84;;;13.32;67.86
48800;BME280;34611;47.964;7.982;2023-11-21T19:08:30;96850.69;;;13.32;67.85
48800;BME280;34611;47.964;7.982;2023-11-21T19:15:30;96845.47;;;13.32;67.91
48800;BME280;34611;47.964;7.982;2023-11-21T19:22:31;96854.38;;;13.40;68.50
48800;BME280;34611;47.964;7.982;2023-11-21T19:29:33;96856.56;;;13.34;68.28
48800;BME280;34611;47.964;7.982;2023-11-21T19:36:38;96853.97;;;13.34;68.06
48800;BME280;34611;47.964;7.982;2023-11-21T19:43:38;96869.63;;;13.34;68.16
48800;BME280;34611;47.964;7.982;2023-11-21T19:50:39;96879.25;;;13.34;68.10
48800;BME280;34611;47.964;7.982;2023-11-21T19:57:39;96885.31;;;13.34;67.98
48800;BME280;34611;47.964;7.982;2023-11-21T20:04:40;96900.97;;;13.34;67.95
48800;BME280;34611;47.964;7.982;2023-11-21T20:11:42;96916.63;;;13.34;68.11
48800;BME280;34611;47.964;7.982;2023-11-21T20:18:46;96927.06;;;13.34;68.19
48800;BME280;34611;47.964;7.982;2023-11-21T20:25:46;96927.06;;;13.34;68.03
48800;BME280;34611;47.964;7.982;2023-11-21T20:32:47;96932.28;;;13.34;67.99
48800;BME280;34611;47.964;7.982;2023-11-21T20:39:48;96942.75;;;13.34;68.16
48800;BME280;34611;47.964;7.982;2023-11-21T20:46:48;96954.00;;;13.35;67.98
48800;BME280;34611;47.964;7.982;2023-11-21T20:53:49;96961.00;;;13.34;67.95
48800;BME280;34611;47.964;7.982;2023-11-21T21:00:49;96961.81;;;13.35;67.98
48800;BME280;34611;47.964;7.982;2023-11-21T21:07:49;96963.63;;;13.34;68.04
48800;BME280;34611;47.964;7.982;2023-11-21T21:14:50;96971.47;;;13.34;67.98
48800;BME280;34611;47.964;7.982;2023-11-21T21:21:51;96974.06;;;13.34;68.12
48800;BME280;34611;47.964;7.982;2023-11-21T21:28:52;96976.69;;;13.34;68.11
48800;BME280;34611;47.964;7.982;2023-11-21T21:35:52;96978.47;;;13.34;68.04
48800;BME280;34611;47.964;7.982;2023-11-21T21:42:56;96995.78;;;13.35;68.15
48800;BME280;34611;47.964;7.982;2023-11-21T21:49:58;96999.38;;;13.34;68.05
48800;BME280;34611;47.964;7.982;2023-11-21T21:56:58;96986.31;;;13.34;68.13
48800;BME280;34611;47.964;7.982;2023-11-21T22:03:58;96989.72;;;13.34;68.29
48800;BME280;34611;47.964;7.982;2023-11-21T22:11:00;96989.72;;;13.34;68.17
48800;BME280;34611;47.964;7.982;2023-11-21T22:18:02;96984.50;;;13.34;68.06
48800;BME280;34611;47.964;7.982;2023-11-21T22:25:02;96977.66;;;13.33;68.23
48800;BME280;34611;47.964;7.982;2023-11-21T22:32:03;96987.13;;;13.34;67.92
48800;BME280;34611;47.964;7.982;2023-11-21T22:39:05;97000.19;;;13.34;68.19
48800;BME280;34611;47.964;7.982;2023-11-21T22:46:06;97002.78;;;13.34;68.18
48800;BME280;34611;47.964;7.982;2023-11-21T22:53:07;97002.78;;;13.34;68.13
48800;BME280;34611;47.964;7.982;2023-11-21T23:00:07;97005.41;;;13.34;68.06
48800;BME280;34611;47.964;7.982;2023-11-21T23:07:20;97010.63;;;13.34;68.21
48800;BME280;34611;47.964;7.982;2023-11-21T23:14:21;97015.84;;;13.34;68.21
48800;BME280;34611;47.964;7.982;2023-11-21T23:21:21;97026.28;;;13.34;68.09
48800;BME280;34611;47.964;7.982;2023-11-21T23:28:22;97023.69;;;13.34;68.17
48800;BME280;34611;47.964;7.982;2023-11-21T23:35:22;97040.16;;;13.35;68.23
48800;BME280;34611;47.964;7.982;2023-11-21T23:42:23;97024.66;;;13.33;68.03
48800;BME280;34611;47.964;7.982;2023-11-21T23:49:24;97028.91;;;13.34;68.20
48800;BME280;34611;47.964;7.982;2023-11-21T23:56:26;97015.84;;;13.34;68.16
